Friday, November 24, 2017, 1:19 PM GMT
Back to Local

CWTY, Trois Rivieres

Location: , , Canada Lat: 46.35
Local Time: 1:19 PM GMT (13:19 GMT) Lon: -72.517
Time Zone: GMT Elev: 19 ft

Show me the last for .
Show Coded

Time T Td Feel RH Dir Speed Gust Alt SLP Vis Weather Sky Remarks
2017-11-24 13:00 32 26 24 78 320° 8 - - 29.89 0 None
2017-11-24 12:00 32 27 24 83 320° 8 - - 29.86 0 None
2017-11-24 11:00 34 30 29 84 260° 6 - - 29.84 0 None
2017-11-24 10:00 34 30 28 84 250° 7 - - 29.84 0 None
2017-11-24 09:00 34 33 25 95 230° 13 - - 29.82 0 Peak wind: 21 mph (19 kts) from 210° at 04 min
2017-11-24 08:00 34 33 23 97 220° 18 - - 29.81 0 Peak wind: 24 mph (21 kts) from 220° at 28 min
2017-11-24 07:00 31 33 20 106 220° 18 - - 29.81 0 Peak wind: 24 mph (21 kts) from 210° at 07 min
2017-11-24 06:00 32 31 20 95 210° 21 - - 29.79 0 Peak wind: 26 mph (23 kts) from 220° at 18 min
2017-11-24 05:00 31 30 19 95 220° 18 - - 29.80 0 Peak wind: 23 mph (20 kts) from 210° at 47 min
2017-11-24 04:00 30 28 18 90 200° 18 - - 29.80 0 Peak wind: 21 mph (19 kts) from 210° at 00 min
2017-11-24 03:00 31 26 18 83 210° 20 - - 29.81 0 Peak wind: 21 mph (19 kts) from 200° at 55 min
2017-11-24 02:00 30 24 18 79 210° 16 - - 29.83 0 None
2017-11-24 01:00 29 23 17 79 200° 15 - - 29.85 0 Peak wind: 20 mph (18 kts) from 210° at 21 min
2017-11-24 00:00 28 22 16 77 200° 17 - - 29.88 0 Peak wind: 21 mph (19 kts) from 200° at 21 min
2017-11-23 23:00 28 23 17 79 210° 16 - - 29.89 0 Peak wind: 20 mph (18 kts) from 200° at 32 min
2017-11-23 22:00 28 22 15 79 200° 17 - - 29.90 0 Peak wind: 23 mph (20 kts) from 200° at 35 min
2017-11-23 21:00 28 21 15 75 200° 18 - - 29.91 0 Peak wind: 24 mph (21 kts) from 210° at 22 min
2017-11-23 20:00 27 21 13 75 210° 18 24 - 29.93 0 Peak wind: 24 mph (21 kts) from 210° at 45 min
2017-11-23 19:00 27 20 14 76 210° 17 - - 29.95 0 Peak wind: 23 mph (20 kts) from 210° at 45 min
2017-11-23 18:00 25 18 12 73 210° 18 - - 29.96 0 Peak wind: 25 mph (22 kts) from 200° at 18 min
2017-11-23 17:00 25 19 12 77 220° 17 - - 29.99 0 Peak wind: 23 mph (20 kts) from 210° at 46 min
2017-11-23 16:00 24 16 11 69 230° 12 17 - 30.03 0 None
2017-11-23 15:00 24 15 10 68 230° 12 18 - 30.06 0 None
2017-11-23 14:00 21 12 12 68 260° 7 - - 30.08 0 None

Support USWX by starting your Amazon purchase here.